createdAt,value
2023-04-16T00:01:59.759Z,100629.22
2023-04-16T00:06:01.458Z,100635.94
2023-04-16T00:10:03.194Z,100626.69
2023-04-16T00:14:04.981Z,100633.59
2023-04-16T00:18:06.755Z,100627.19
2023-04-16T00:22:08.233Z,100633.13
2023-04-16T00:26:09.805Z,100634.97
2023-04-16T00:30:12.435Z,100633.28
2023-04-16T00:34:14.039Z,100647.91
2023-04-16T00:38:15.796Z,100644.31
2023-04-16T00:42:17.403Z,100642.66
2023-04-16T00:46:23.973Z,100639.19
2023-04-16T00:50:25.726Z,100638.25
2023-04-16T00:54:27.350Z,100638.13
2023-04-16T00:58:29.907Z,100647.28
2023-04-16T01:02:31.948Z,100643.84
2023-04-16T01:06:33.942Z,100645.53
2023-04-16T01:10:35.526Z,100648.00
2023-04-16T01:14:37.331Z,100653.69
2023-04-16T01:18:39.618Z,100666.94
2023-04-16T01:22:41.152Z,100666.31
2023-04-16T01:26:42.784Z,100664.53
2023-04-16T01:30:44.289Z,100673.25
2023-04-16T01:34:59.121Z,100671.50
2023-04-16T01:39:00.717Z,100671.72
2023-04-16T01:43:02.499Z,100674.00
2023-04-16T01:47:04.282Z,100667.72
2023-04-16T01:51:06.079Z,100683.53
2023-04-16T01:55:07.903Z,100669.28
2023-04-16T01:59:09.660Z,100688.59
2023-04-16T02:03:17.682Z,100681.84
2023-04-16T02:07:19.384Z,100676.84
2023-04-16T02:11:21.149Z,100672.59
2023-04-16T02:15:25.230Z,100677.97
2023-04-16T02:19:27.193Z,100673.75
2023-04-16T02:23:29.044Z,100681.19
2023-04-16T02:27:32.913Z,100686.44
2023-04-16T02:31:47.500Z,100688.91
2023-04-16T02:35:49.936Z,100682.91
2023-04-16T02:39:51.509Z,100682.81
2023-04-16T02:43:53.051Z,100684.28
2023-04-16T02:47:54.649Z,100683.41
2023-04-16T02:51:56.338Z,100693.72
2023-04-16T02:55:57.963Z,100707.41
2023-04-16T02:59:59.664Z,100699.56
2023-04-16T03:04:01.222Z,100697.06
2023-04-16T03:08:04.086Z,100687.78
2023-04-16T03:12:05.997Z,100687.66
2023-04-16T03:16:07.870Z,100705.53
2023-04-16T03:20:10.196Z,100701.16
2023-04-16T03:24:11.819Z,100702.84
2023-04-16T03:28:14.695Z,100705.19
2023-04-16T03:32:17.360Z,100706.75
2023-04-16T03:36:19.678Z,100700.69
2023-04-16T03:40:23.008Z,100719.56
2023-04-16T03:44:25.772Z,100715.97
2023-04-16T03:48:27.396Z,100723.63
2023-04-16T03:52:28.929Z,100724.41
2023-04-16T03:56:31.839Z,100726.09
2023-04-16T04:00:34.096Z,100724.25
2023-04-16T04:04:42.524Z,100729.38
2023-04-16T04:08:45.381Z,100729.97
2023-04-16T04:12:48.382Z,100726.53
2023-04-16T04:16:50.017Z,100732.38
2023-04-16T04:20:52.259Z,100741.06
2023-04-16T04:24:57.803Z,100732.53
2023-04-16T04:29:02.303Z,100733.41
2023-04-16T04:33:05.154Z,100742.75
2023-04-16T04:37:07.266Z,100748.72
2023-04-16T04:41:08.868Z,100748.13
2023-04-16T04:45:12.971Z,100751.72
2023-04-16T04:49:16.007Z,100750.09
2023-04-16T04:53:17.612Z,100750.19
2023-04-16T04:57:19.267Z,100757.16
2023-04-16T05:01:21.203Z,100761.50
2023-04-16T05:05:22.895Z,100771.03
2023-04-16T05:09:24.455Z,100773.72
2023-04-16T05:13:26.124Z,100777.22
2023-04-16T05:17:27.691Z,100781.88
2023-04-16T05:21:29.388Z,100786.22
2023-04-16T05:25:30.965Z,100786.22
2023-04-16T05:29:32.567Z,100787.72
2023-04-16T05:33:34.167Z,100793.56
2023-04-16T05:37:35.685Z,100800.66
2023-04-16T05:41:37.215Z,100805.16
2023-04-16T05:45:41.540Z,100800.06
2023-04-16T05:49:43.166Z,100811.59
2023-04-16T05:53:44.803Z,100816.75
2023-04-16T05:57:46.452Z,100817.44
2023-04-16T06:01:48.061Z,100812.41
2023-04-16T06:05:49.793Z,100812.84
2023-04-16T06:09:51.407Z,100808.34
2023-04-16T06:13:52.935Z,100809.75
2023-04-16T06:17:54.500Z,100812.19
2023-04-16T06:21:57.005Z,100815.47
2023-04-16T06:25:58.635Z,100827.81
2023-04-16T06:30:00.185Z,100834.53
2023-04-16T06:34:01.692Z,100839.44
2023-04-16T06:38:03.260Z,100841.88
2023-04-16T06:42:04.926Z,100844.38
2023-04-16T06:46:06.482Z,100840.91
2023-04-16T06:50:08.278Z,100841.50
2023-04-16T06:54:09.847Z,100852.66
2023-04-16T06:58:11.612Z,100853.31
2023-04-16T07:02:13.348Z,100849.88
2023-04-16T07:06:15.993Z,100856.44
2023-04-16T07:10:17.617Z,100850.47
2023-04-16T07:14:19.171Z,100850.34
2023-04-16T07:18:21.392Z,100853.97
2023-04-16T07:22:22.984Z,100869.47
2023-04-16T07:26:24.526Z,100860.25
2023-04-16T07:30:32.801Z,100872.28
2023-04-16T07:34:34.405Z,100872.84
2023-04-16T07:38:37.000Z,100870.91
2023-04-16T07:42:38.555Z,100874.53
2023-04-16T07:46:47.000Z,100870.03
2023-04-16T07:50:50.125Z,100876.22
2023-04-16T07:54:52.009Z,100878.44
2023-04-16T07:58:53.597Z,100877.66
2023-04-16T08:02:55.486Z,100867.94
2023-04-16T08:06:57.109Z,100874.13
2023-04-16T08:10:59.078Z,100876.59
2023-04-16T08:15:00.691Z,100882.75
2023-04-16T08:19:02.312Z,100879.66
2023-04-16T08:23:03.887Z,100888.63
2023-04-16T08:27:17.716Z,100884.75
2023-04-16T08:31:21.215Z,100892.13
2023-04-16T08:35:23.073Z,100900.06
2023-04-16T08:39:24.717Z,100916.63
2023-04-16T08:43:26.718Z,100905.19
2023-04-16T08:47:30.034Z,100915.94
2023-04-16T08:51:35.119Z,100912.00
2023-04-16T08:55:39.428Z,100914.69
2023-04-16T08:59:46.280Z,100921.31
2023-04-16T09:03:48.793Z,100928.38
2023-04-16T09:07:52.169Z,100925.34
2023-04-16T09:11:54.086Z,100929.16
2023-04-16T09:15:57.255Z,100936.97
2023-04-16T09:19:59.154Z,100950.34
2023-04-16T09:24:01.830Z,100948.84
2023-04-16T09:28:03.438Z,100954.72
2023-04-16T09:32:09.990Z,100956.09
2023-04-16T09:36:12.001Z,100955.44
2023-04-16T09:40:13.628Z,100959.69
2023-04-16T09:44:15.315Z,100973.50
2023-04-16T09:48:28.906Z,100965.00
2023-04-16T09:52:30.536Z,100972.84
2023-04-16T09:56:32.218Z,100976.72
2023-04-16T10:00:33.775Z,100970.56
2023-04-16T10:04:51.819Z,100988.59
2023-04-16T10:08:57.730Z,100987.28
2023-04-16T10:12:59.705Z,100985.84
2023-04-16T10:17:02.376Z,100981.06
2023-04-16T10:21:04.631Z,100983.31
2023-04-16T10:25:07.595Z,100993.84
2023-04-16T10:29:09.366Z,100990.56
2023-04-16T10:33:12.128Z,100995.88
2023-04-16T10:37:15.692Z,100987.97
2023-04-16T10:41:17.404Z,100995.97
2023-04-16T10:45:19.008Z,100992.09
2023-04-16T10:49:24.396Z,100994.41
2023-04-16T10:53:27.776Z,100985.19
2023-04-16T10:57:30.571Z,100989.28
2023-04-16T11:01:42.334Z,100989.91
2023-04-16T11:05:47.041Z,100987.97
2023-04-16T11:09:59.868Z,100979.97
2023-04-16T11:14:04.563Z,100988.38
2023-04-16T11:18:07.135Z,100981.53
2023-04-16T11:22:08.996Z,100986.09
2023-04-16T11:26:20.761Z,100990.44
2023-04-16T11:30:31.236Z,100990.75
2023-04-16T11:34:33.126Z,100993.78
2023-04-16T11:38:40.936Z,100995.13
2023-04-16T11:42:42.801Z,100985.84
2023-04-16T11:46:44.497Z,100992.56
2023-04-16T11:50:56.259Z,100973.78
2023-04-16T11:54:59.056Z,100988.66
2023-04-16T11:59:14.559Z,100985.41
2023-04-16T12:03:17.043Z,100982.09
2023-04-16T12:07:19.004Z,100984.19
2023-04-16T12:11:21.098Z,100987.69
2023-04-16T12:15:22.750Z,101000.72
2023-04-16T12:19:24.277Z,100990.59
2023-04-16T12:23:27.711Z,100985.34
2023-04-16T12:27:52.316Z,100984.63
2023-04-16T12:31:54.839Z,100979.63
2023-04-16T12:35:56.900Z,100987.16
2023-04-16T12:39:58.427Z,100989.44
2023-04-16T12:44:09.095Z,100989.44
2023-04-16T12:48:10.954Z,100992.91
2023-04-16T12:52:12.596Z,101015.25
2023-04-16T12:56:14.160Z,100999.97
2023-04-16T13:00:16.352Z,100991.47
2023-04-16T13:04:19.133Z,100994.22
2023-04-16T13:08:20.928Z,100991.91
2023-04-16T13:12:22.517Z,100987.25
2023-04-16T13:16:24.292Z,100992.16
2023-04-16T13:20:25.932Z,100997.16
2023-04-16T13:24:27.552Z,100989.22
2023-04-16T13:28:29.134Z,100993.53
2023-04-16T13:32:31.173Z,101003.78
2023-04-16T13:36:33.462Z,101001.78
2023-04-16T13:40:35.054Z,101005.56
2023-04-16T13:44:36.685Z,101001.13
2023-04-16T13:48:38.558Z,101008.31
2023-04-16T13:52:40.195Z,101007.47
2023-04-16T13:56:41.751Z,101011.88
2023-04-16T14:00:43.571Z,101012.50
2023-04-16T14:04:46.056Z,101016.09
2023-04-16T14:08:47.641Z,101009.06
2023-04-16T14:12:49.363Z,101009.63
2023-04-16T14:16:51.024Z,101007.94
2023-04-16T14:20:52.583Z,101012.66
2023-04-16T14:24:54.126Z,101027.59
2023-04-16T14:28:55.728Z,101018.19
2023-04-16T14:32:57.436Z,101016.31
2023-04-16T14:36:59.045Z,101014.88
2023-04-16T14:41:00.699Z,101017.34
2023-04-16T14:45:03.327Z,101016.00
2023-04-16T14:49:06.314Z,101012.78
2023-04-16T14:53:07.951Z,101011.03
2023-04-16T14:57:09.649Z,101014.19
2023-04-16T15:01:13.577Z,101016.56
2023-04-16T15:05:15.537Z,101018.84
2023-04-16T15:09:17.096Z,101014.38
2023-04-16T15:13:19.355Z,101020.34
2023-04-16T15:17:21.441Z,101011.81
2023-04-16T15:21:23.068Z,101020.97
2023-04-16T15:25:25.501Z,101023.59
2023-04-16T15:29:27.098Z,101014.75
2023-04-16T15:33:28.768Z,101015.63
2023-04-16T15:37:31.098Z,101021.94
2023-04-16T15:41:36.276Z,101022.28
2023-04-16T15:45:38.573Z,101021.69
2023-04-16T15:49:40.313Z,101019.81
2023-04-16T15:53:42.371Z,101011.88
2023-04-16T15:57:44.174Z,101020.31
2023-04-16T16:01:45.898Z,101008.56
2023-04-16T16:05:48.295Z,101000.34
2023-04-16T16:09:51.783Z,101005.72
2023-04-16T16:13:53.399Z,101018.31
2023-04-16T16:17:57.929Z,101023.13
2023-04-16T16:21:59.610Z,101013.06
2023-04-16T16:26:01.225Z,101015.06
2023-04-16T16:30:04.723Z,101013.53
2023-04-16T16:34:06.340Z,101020.69
2023-04-16T16:38:08.134Z,101014.66
2023-04-16T16:42:09.686Z,101021.78
2023-04-16T16:46:11.507Z,101019.28
2023-04-16T16:50:13.275Z,101015.78
2023-04-16T16:54:14.896Z,101033.09
2023-04-16T16:58:16.535Z,101021.78
2023-04-16T17:02:19.059Z,101029.44
2023-04-16T17:06:21.379Z,101027.63
2023-04-16T17:10:23.118Z,101031.06
2023-04-16T17:14:24.764Z,101036.06
2023-04-16T17:18:26.412Z,101042.16
2023-04-16T17:22:28.007Z,101038.75
2023-04-16T17:26:29.508Z,101029.44
2023-04-16T17:30:31.625Z,101037.03
2023-04-16T17:34:33.260Z,101035.09
2023-04-16T17:38:34.884Z,101036.63
2023-04-16T17:42:36.999Z,101047.72
2023-04-16T17:46:38.674Z,101056.25
2023-04-16T17:50:40.391Z,101054.41
2023-04-16T17:54:42.126Z,101056.53
2023-04-16T17:58:43.721Z,101066.59
2023-04-16T18:02:45.404Z,101068.69
2023-04-16T18:06:47.189Z,101067.63
2023-04-16T18:10:48.877Z,101077.94
2023-04-16T18:14:50.758Z,101076.81
2023-04-16T18:18:52.444Z,101082.75
2023-04-16T18:22:54.114Z,101084.69
2023-04-16T18:26:56.688Z,101085.72
2023-04-16T18:31:02.846Z,101088.94
2023-04-16T18:35:06.310Z,101095.91
2023-04-16T18:39:08.171Z,101099.47
2023-04-16T18:43:09.821Z,101099.59
2023-04-16T18:47:11.418Z,101100.50
2023-04-16T18:51:15.457Z,101109.06
2023-04-16T18:55:18.077Z,101110.66
2023-04-16T18:59:19.670Z,101111.38
2023-04-16T19:03:21.488Z,101109.19
2023-04-16T19:07:23.463Z,101108.72
2023-04-16T19:11:25.332Z,101116.09
2023-04-16T19:15:29.178Z,101116.69
2023-04-16T19:19:32.275Z,101128.50
2023-04-16T19:23:33.914Z,101129.09
2023-04-16T19:27:36.263Z,101123.97
2023-04-16T19:31:38.134Z,101128.88
2023-04-16T19:35:43.602Z,101128.75
2023-04-16T19:39:45.488Z,101131.53
2023-04-16T19:43:47.277Z,101127.19
2023-04-16T19:47:51.181Z,101126.53
2023-04-16T19:51:53.488Z,101137.63
2023-04-16T19:55:55.230Z,101141.94
2023-04-16T19:59:57.038Z,101139.28
2023-04-16T20:03:58.714Z,101143.63
2023-04-16T20:08:00.808Z,101144.41
2023-04-16T20:12:02.673Z,101152.78
2023-04-16T20:16:05.649Z,101145.09
2023-04-16T20:20:10.257Z,101148.38
2023-04-16T20:24:11.879Z,101142.19
2023-04-16T20:28:16.267Z,101145.69
2023-04-16T20:32:17.920Z,101135.22
2023-04-16T20:36:19.633Z,101136.69
2023-04-16T20:40:21.332Z,101136.63
2023-04-16T20:44:33.188Z,101131.28
2023-04-16T20:48:34.933Z,101137.88
2023-04-16T20:52:37.250Z,101138.84
2023-04-16T20:56:38.909Z,101129.47
2023-04-16T21:00:40.640Z,101125.03
2023-04-16T21:04:42.352Z,101127.72
2023-04-16T21:08:44.086Z,101119.81
2023-04-16T21:12:45.773Z,101131.03
2023-04-16T21:16:47.338Z,101130.00
2023-04-16T21:20:48.917Z,101119.53
2023-04-16T21:24:50.446Z,101133.03
2023-04-16T21:28:53.297Z,101127.69
2023-04-16T21:32:56.573Z,101131.59
2023-04-16T21:36:58.113Z,101130.81
2023-04-16T21:41:01.309Z,101135.09
2023-04-16T21:45:03.204Z,101130.22
2023-04-16T21:49:04.728Z,101128.44
2023-04-16T21:53:06.591Z,101140.59
2023-04-16T21:57:08.285Z,101133.00
2023-04-16T22:01:11.088Z,101127.22
2023-04-16T22:05:12.929Z,101133.50
2023-04-16T22:09:15.416Z,101128.09
2023-04-16T22:13:17.799Z,101129.78
2023-04-16T22:17:20.671Z,101127.88
2023-04-16T22:21:22.214Z,101129.38
2023-04-16T22:25:24.039Z,101133.50
2023-04-16T22:29:25.871Z,101140.03
2023-04-16T22:33:31.017Z,101125.31
2023-04-16T22:37:33.452Z,101121.16
2023-04-16T22:41:38.056Z,101130.72
2023-04-16T22:45:40.979Z,101135.78
2023-04-16T22:49:42.683Z,101132.53
2023-04-16T22:53:44.316Z,101125.09
2023-04-16T22:57:45.946Z,101130.81
2023-04-16T23:01:47.628Z,101132.53
2023-04-16T23:05:49.223Z,101132.91
2023-04-16T23:09:50.894Z,101131.38
2023-04-16T23:13:52.462Z,101127.94
2023-04-16T23:17:54.055Z,101125.22
2023-04-16T23:21:55.641Z,101131.81
2023-04-16T23:25:57.276Z,101131.53
2023-04-16T23:29:58.896Z,101129.97
2023-04-16T23:34:00.428Z,101123.13
2023-04-16T23:38:02.136Z,101127.44
2023-04-16T23:42:03.810Z,101134.16
2023-04-16T23:46:05.556Z,101136.72
2023-04-16T23:50:07.517Z,101133.28
2023-04-16T23:54:09.084Z,101125.88
2023-04-16T23:58:10.690Z,101125.69
